Time;durP1;ratioP1;P1;durP2;ratioP2;P2;SDS_P1;SDS_P2;PMS_P1;PMS_P2;Temp;Humidity;BMP_temperature;BMP_pressure;BME280_temperature;BME280_humidity;BME280_pressure;Samples;Min_cycle;Max_cycle;Signal;HPM_P1;HPM_P2
2022/07/26 00:02:05;;;;;;;;;;;;;;;18.06;66.11;97405.94;5120368;28;19951;-63
2022/07/26 00:04:46;;;;;;;;;;;;;;;18.04;66.20;97407.97;5120175;28;19996;-62
2022/07/26 00:07:13;;;;;;;;;;;;;;;17.98;66.54;97397.94;5120337;28;19920;-63
2022/07/26 00:09:40;;;;;;;;;;;;;;;17.91;66.95;97402.22;5120075;28;19919;-63
2022/07/26 00:12:07;;;;;;;;;;;;;;;17.82;67.07;97397.88;5120092;28;19927;-63
2022/07/26 00:14:35;;;;;;;;;;;;;;;17.76;67.33;97400.31;5119958;28;19961;-63
2022/07/26 00:17:02;;;;;;;;;;;;;;;17.72;67.59;97391.78;5118951;28;19928;-63
2022/07/26 00:19:30;;;;;;;;;;;;;;;17.69;67.59;97402.72;5119894;28;19919;-63
2022/07/26 00:24:57;;;;;;;;;;;;;;;17.59;68.19;97391.38;5118624;28;20321;-63
2022/07/26 00:27:25;;;;;;;;;;;;;;;17.56;68.32;97391.69;5118194;28;19941;-63
2022/07/26 00:29:52;;;;;;;;;;;;;;;17.48;68.49;97396.97;5117908;28;19924;-63
2022/07/26 00:32:19;;;;;;;;;;;;;;;17.39;68.83;97393.41;5118051;28;20022;-63
2022/07/26 00:34:46;;;;;;;;;;;;;;;17.28;69.35;97392.81;5117761;28;20208;-63
2022/07/26 00:37:15;;;;;;;;;;;;;;;17.20;69.92;97390.13;5117613;28;19973;-63
2022/07/26 00:39:42;;;;;;;;;;;;;;;17.10;70.29;97392.88;5117713;28;19924;-63
2022/07/26 00:42:09;;;;;;;;;;;;;;;16.95;71.59;97391.75;5117738;28;19919;-63
2022/07/26 00:44:37;;;;;;;;;;;;;;;16.82;72.46;97399.22;5117893;28;19919;-63
2022/07/26 00:47:05;;;;;;;;;;;;;;;16.70;73.20;97396.97;5117586;28;19941;-63
2022/07/26 00:49:32;;;;;;;;;;;;;;;16.65;73.77;97396.56;5117555;28;19963;-63
2022/07/26 00:51:59;;;;;;;;;;;;;;;16.61;74.03;97392.56;5117772;28;19921;-62
2022/07/26 00:54:27;;;;;;;;;;;;;;;16.63;73.86;97388.75;5117464;28;19959;-63
2022/07/26 00:56:54;;;;;;;;;;;;;;;16.56;74.41;97382.38;5119105;28;20023;-62
2022/07/26 00:59:22;;;;;;;;;;;;;;;16.48;75.08;97390.25;5118933;28;19920;-63
2022/07/26 01:01:49;;;;;;;;;;;;;;;16.44;75.28;97385.38;5118875;28;20199;-63
2022/07/26 01:04:16;;;;;;;;;;;;;;;16.41;75.81;97380.41;5118971;28;20011;-63
2022/07/26 01:06:43;;;;;;;;;;;;;;;16.39;76.32;97385.03;5118561;28;19919;-62
2022/07/26 01:09:11;;;;;;;;;;;;;;;16.35;76.72;97375.69;5118795;28;19926;-64
2022/07/26 01:11:40;;;;;;;;;;;;;;;16.33;77.09;97375.84;5118929;28;19926;-63
2022/07/26 01:14:07;;;;;;;;;;;;;;;16.38;76.74;97367.44;5118617;28;19934;-63
2022/07/26 01:16:34;;;;;;;;;;;;;;;16.36;76.67;97361.41;5118207;28;19920;-63
2022/07/26 01:19:01;;;;;;;;;;;;;;;16.38;77.06;97362.94;5118705;28;19996;-63
2022/07/26 01:21:30;;;;;;;;;;;;;;;16.39;76.69;97356.66;5118910;28;19957;-63
2022/07/26 01:23:57;;;;;;;;;;;;;;;16.39;77.28;97353.16;5119042;28;19942;-63
2022/07/26 01:26:25;;;;;;;;;;;;;;;16.35;77.74;97352.63;5118604;28;19981;-63
2022/07/26 01:28:52;;;;;;;;;;;;;;;16.38;77.62;97343.53;5118716;28;20022;-63
2022/07/26 01:31:19;;;;;;;;;;;;;;;16.32;78.33;97344.97;5118623;28;19920;-62
2022/07/26 01:33:46;;;;;;;;;;;;;;;16.34;78.85;97334.22;5117484;28;19988;-63
2022/07/26 01:36:18;;;;;;;;;;;;;;;16.41;78.54;97335.28;5118604;28;20010;-62
2022/07/26 01:38:49;;;;;;;;;;;;;;;16.37;78.79;97332.06;5118641;28;20307;-62
2022/07/26 01:41:17;;;;;;;;;;;;;;;16.43;78.57;97326.16;5118287;28;20323;-63
2022/07/26 01:43:44;;;;;;;;;;;;;;;16.46;78.20;97336.50;5118201;28;19920;-63
2022/07/26 01:46:12;;;;;;;;;;;;;;;16.47;78.18;97327.53;5118361;28;19942;-62
2022/07/26 01:48:40;;;;;;;;;;;;;;;16.56;77.70;97321.28;5118222;28;20017;-63
2022/07/26 01:51:07;;;;;;;;;;;;;;;16.56;77.87;97321.28;5118064;28;19920;-63
2022/07/26 01:53:34;;;;;;;;;;;;;;;16.51;78.08;97320.94;5118012;28;20222;-62
2022/07/26 01:56:03;;;;;;;;;;;;;;;16.49;78.46;97316.75;5118312;28;19950;-63
2022/07/26 01:58:30;;;;;;;;;;;;;;;16.48;78.96;97320.41;5118270;28;20014;-63
2022/07/26 02:00:57;;;;;;;;;;;;;;;16.45;79.02;97313.56;5118059;28;20298;-63
2022/07/26 02:03:27;;;;;;;;;;;;;;;16.51;78.85;97317.44;5116965;28;20314;-64
2022/07/26 02:05:54;;;;;;;;;;;;;;;16.58;78.34;97313.19;5117883;28;20235;-63
2022/07/26 02:08:22;;;;;;;;;;;;;;;16.58;78.20;97315.84;5117795;28;19939;-63
2022/07/26 02:11:01;;;;;;;;;;;;;;;16.56;77.89;97315.97;5117693;28;19927;-63
2022/07/26 02:13:30;;;;;;;;;;;;;;;16.48;78.58;97309.78;5117813;28;19920;-63
2022/07/26 02:15:58;;;;;;;;;;;;;;;16.42;79.21;97303.25;5118077;28;20018;-63
2022/07/26 02:18:26;;;;;;;;;;;;;;;16.43;79.46;97299.63;5117774;28;19924;-64
2022/07/26 02:20:54;;;;;;;;;;;;;;;16.43;79.62;97296.13;5117622;28;19954;-63
2022/07/26 02:23:21;;;;;;;;;;;;;;;16.42;80.03;97297.97;5117673;28;19919;-63
2022/07/26 02:25:49;;;;;;;;;;;;;;;16.33;81.46;97298.84;5117714;28;19919;-63
2022/07/26 02:28:16;;;;;;;;;;;;;;;16.24;82.82;97301.56;5117649;28;19923;-62
2022/07/26 02:30:45;;;;;;;;;;;;;;;16.21;83.36;97294.75;5117500;28;20287;-63
2022/07/26 02:33:13;;;;;;;;;;;;;;;16.21;83.43;97294.75;5117555;28;19931;-63
2022/07/26 02:35:40;;;;;;;;;;;;;;;16.23;83.52;97290.13;5117505;28;19926;-62
2022/07/26 02:38:08;;;;;;;;;;;;;;;16.32;83.26;97286.56;5117528;28;19920;-63
2022/07/26 02:40:36;;;;;;;;;;;;;;;16.39;82.42;97292.09;5117101;28;20268;-63
2022/07/26 02:43:04;;;;;;;;;;;;;;;16.49;81.84;97291.03;5117525;28;19945;-64
2022/07/26 02:45:31;;;;;;;;;;;;;;;16.56;81.39;97293.94;5117269;28;20219;-63
2022/07/26 02:48:00;;;;;;;;;;;;;;;16.57;81.03;97290.28;5117401;28;19928;-63
2022/07/26 02:50:29;;;;;;;;;;;;;;;16.58;81.42;97287.47;5116921;28;20341;-63
2022/07/26 02:52:56;;;;;;;;;;;;;;;16.50;82.33;97287.41;5117436;28;19920;-64
2022/07/26 02:55:25;;;;;;;;;;;;;;;16.50;82.64;97286.56;5117530;28;19923;-64
2022/07/26 02:57:52;;;;;;;;;;;;;;;16.50;82.93;97281.25;5117500;28;19919;-62
2022/07/26 03:00:20;;;;;;;;;;;;;;;16.58;82.86;97276.00;5117075;28;19923;-63
2022/07/26 03:02:48;;;;;;;;;;;;;;;16.61;82.24;97279.19;5117015;28;19920;-63
2022/07/26 03:05:17;;;;;;;;;;;;;;;16.67;81.92;97269.78;5117158;28;19924;-63
2022/07/26 03:07:44;;;;;;;;;;;;;;;16.73;80.69;97266.47;5117307;28;19919;-63
2022/07/26 03:10:11;;;;;;;;;;;;;;;16.73;80.23;97259.38;5117535;28;20010;-63
2022/07/26 03:12:38;;;;;;;;;;;;;;;16.84;79.70;97261.75;5117249;28;20230;-62
2022/07/26 03:15:05;;;;;;;;;;;;;;;16.93;78.90;97257.34;5117015;28;20018;-63
2022/07/26 03:17:32;;;;;;;;;;;;;;;16.97;79.16;97256.06;5117164;28;19924;-63
2022/07/26 03:20:01;;;;;;;;;;;;;;;17.12;79.28;97257.16;5117133;28;20406;-63
2022/07/26 03:22:29;;;;;;;;;;;;;;;17.40;78.75;97259.47;5117240;28;19920;-63
2022/07/26 03:24:56;;;;;;;;;;;;;;;17.65;77.72;97260.38;5116891;28;19920;-63
2022/07/26 03:27:24;;;;;;;;;;;;;;;17.72;77.22;97250.78;5117010;28;20019;-64
2022/07/26 03:29:51;;;;;;;;;;;;;;;17.78;76.72;97244.81;5116999;28;19974;-63
2022/07/26 03:32:18;;;;;;;;;;;;;;;17.77;77.18;97243.16;5116925;28;20223;-63
2022/07/26 03:34:45;;;;;;;;;;;;;;;17.77;77.38;97251.13;5117070;28;19926;-64
2022/07/26 03:37:12;;;;;;;;;;;;;;;17.84;77.71;97246.84;5116770;28;19927;-64
2022/07/26 03:39:41;;;;;;;;;;;;;;;17.91;77.88;97241.72;5116892;28;19972;-63
2022/07/26 03:42:08;;;;;;;;;;;;;;;17.97;78.16;97236.56;5116916;28;20311;-63
2022/07/26 03:44:35;;;;;;;;;;;;;;;18.03;78.09;97237.75;5117093;28;19927;-63
2022/07/26 03:47:02;;;;;;;;;;;;;;;18.03;78.24;97235.09;5116854;28;19919;-63
2022/07/26 03:49:29;;;;;;;;;;;;;;;17.99;78.62;97223.94;5117284;28;19973;-62
2022/07/26 03:51:57;;;;;;;;;;;;;;;18.06;78.78;97229.44;5118180;28;19920;-62
2022/07/26 03:54:24;;;;;;;;;;;;;;;18.15;78.85;97234.63;5120295;28;19919;-63
2022/07/26 03:56:51;;;;;;;;;;;;;;;18.44;78.54;97224.31;5120523;28;19920;-63
2022/07/26 03:59:18;;;;;;;;;;;;;;;19.13;76.58;97224.56;5120252;28;19920;-63
2022/07/26 04:01:46;;;;;;;;;;;;;;;19.71;73.07;97221.56;5120476;28;20002;-63
2022/07/26 04:04:16;;;;;;;;;;;;;;;20.02;71.05;97217.03;5120141;28;20326;-63
2022/07/26 04:06:44;;;;;;;;;;;;;;;20.35;69.26;97210.50;5120440;28;20223;-63
2022/07/26 04:09:11;;;;;;;;;;;;;;;20.93;66.91;97209.84;5120154;27;19926;-63
2022/07/26 04:11:38;;;;;;;;;;;;;;;21.34;64.97;97214.56;5120338;28;20011;-63
2022/07/26 04:14:07;;;;;;;;;;;;;;;21.48;64.51;97211.06;5119821;28;19924;-63
2022/07/26 04:16:34;;;;;;;;;;;;;;;21.55;63.89;97213.81;5120478;28;20257;-63
2022/07/26 04:19:02;;;;;;;;;;;;;;;21.68;63.25;97216.66;5120183;28;19980;-64
2022/07/26 04:21:29;;;;;;;;;;;;;;;21.87;62.64;97216.09;5119774;28;19920;-63
2022/07/26 04:23:56;;;;;;;;;;;;;;;22.11;62.12;97205.03;5119782;28;20018;-63
2022/07/26 04:26:23;;;;;;;;;;;;;;;22.30;61.30;97204.41;5119785;28;19924;-63
2022/07/26 04:28:50;;;;;;;;;;;;;;;22.47;61.06;97201.31;5119780;28;19920;-63
2022/07/26 04:31:19;;;;;;;;;;;;;;;22.63;61.17;97200.19;5119807;28;20243;-62
2022/07/26 04:33:46;;;;;;;;;;;;;;;22.78;60.76;97198.25;5119331;28;20349;-62
2022/07/26 04:36:13;;;;;;;;;;;;;;;22.86;60.27;97200.78;5119645;28;20225;-62
2022/07/26 04:38:41;;;;;;;;;;;;;;;22.99;60.21;97195.56;5119884;28;19947;-62
2022/07/26 04:41:09;;;;;;;;;;;;;;;23.30;59.74;97198.63;5119190;28;19962;-63
2022/07/26 04:43:36;;;;;;;;;;;;;;;23.62;58.76;97203.38;5119479;28;19977;-62
2022/07/26 04:46:03;;;;;;;;;;;;;;;23.79;58.11;97195.81;5119120;28;19930;-63
2022/07/26 04:48:32;;;;;;;;;;;;;;;23.96;57.90;97189.88;5119618;28;19990;-62
2022/07/26 04:51:00;;;;;;;;;;;;;;;24.05;58.15;97191.38;5119453;28;19919;-63
2022/07/26 04:53:27;;;;;;;;;;;;;;;24.12;57.66;97194.91;5119372;28;20023;-63
2022/07/26 04:55:54;;;;;;;;;;;;;;;24.16;57.51;97198.84;5119176;28;20022;-62
2022/07/26 04:58:21;;;;;;;;;;;;;;;24.24;57.51;97195.13;5119559;28;19926;-63
2022/07/26 05:00:48;;;;;;;;;;;;;;;24.33;57.53;97199.31;5119121;28;19965;-62
2022/07/26 05:03:16;;;;;;;;;;;;;;;24.39;57.59;97196.63;5118623;28;20211;-63
2022/07/26 05:05:44;;;;;;;;;;;;;;;24.47;57.27;97199.13;5119174;28;19926;-63
2022/07/26 05:08:14;;;;;;;;;;;;;;;24.50;57.12;97204.09;5119103;28;20018;-63
2022/07/26 05:10:41;;;;;;;;;;;;;;;24.69;56.94;97203.28;5119251;28;19973;-62
2022/07/26 05:13:08;;;;;;;;;;;;;;;24.82;56.75;97208.66;5118977;28;19919;-62
2022/07/26 05:15:36;;;;;;;;;;;;;;;24.87;56.96;97208.88;5118570;28;19954;-63
2022/07/26 05:18:04;;;;;;;;;;;;;;;24.92;56.79;97211.78;5118983;28;20329;-63
2022/07/26 05:20:31;;;;;;;;;;;;;;;25.05;56.49;97219.03;5118816;28;19923;-63
2022/07/26 05:23:00;;;;;;;;;;;;;;;25.21;56.18;97215.91;5118770;28;19923;-62
2022/07/26 05:25:28;;;;;;;;;;;;;;;25.37;55.97;97227.06;5118692;28;19919;-63
2022/07/26 05:27:55;;;;;;;;;;;;;;;25.45;54.70;97221.47;5119066;27;19966;-63
2022/07/26 05:30:22;;;;;;;;;;;;;;;25.59;55.00;97222.28;5118568;28;19926;-63
2022/07/26 05:32:49;;;;;;;;;;;;;;;25.57;55.24;97214.41;5118611;28;19919;-63
2022/07/26 05:35:16;;;;;;;;;;;;;;;25.55;54.50;97229.94;5118572;28;19919;-63
2022/07/26 05:37:44;;;;;;;;;;;;;;;25.52;54.09;97219.56;5118549;28;20254;-62
2022/07/26 05:40:13;;;;;;;;;;;;;;;25.55;54.33;97221.84;5118371;28;20218;-63
2022/07/26 05:42:40;;;;;;;;;;;;;;;25.54;54.97;97225.59;5118242;28;19919;-62
2022/07/26 05:45:08;;;;;;;;;;;;;;;25.41;54.07;97220.22;5118538;28;20234;-62
2022/07/26 05:47:35;;;;;;;;;;;;;;;25.39;53.89;97233.06;5118383;28;19924;-63
2022/07/26 05:50:03;;;;;;;;;;;;;;;25.36;54.13;97238.06;5118747;28;19962;-63
2022/07/26 05:52:30;;;;;;;;;;;;;;;25.34;54.24;97232.88;5118416;28;20323;-63
2022/07/26 05:54:58;;;;;;;;;;;;;;;25.37;54.27;97232.47;5118236;28;19926;-63
2022/07/26 05:57:26;;;;;;;;;;;;;;;25.38;54.56;97242.19;5118150;28;19920;-62
2022/07/26 05:59:53;;;;;;;;;;;;;;;25.25;54.75;97234.13;5118180;28;19926;-63
2022/07/26 06:02:21;;;;;;;;;;;;;;;25.21;54.74;97243.66;5118192;28;20281;-63
2022/07/26 06:04:48;;;;;;;;;;;;;;;25.12;54.52;97234.16;5118023;27;20019;-62
2022/07/26 06:07:15;;;;;;;;;;;;;;;24.92;55.13;97233.31;5118072;28;19988;-63
2022/07/26 06:09:42;;;;;;;;;;;;;;;24.77;55.89;97229.16;5117829;28;19919;-63
2022/07/26 06:12:09;;;;;;;;;;;;;;;24.66;55.76;97235.97;5117930;28;19926;-62
2022/07/26 06:14:38;;;;;;;;;;;;;;;24.63;55.87;97241.78;5116996;28;19919;-62
2022/07/26 06:17:05;;;;;;;;;;;;;;;24.61;56.49;97251.91;5118003;28;19972;-61
2022/07/26 06:19:32;;;;;;;;;;;;;;;24.68;57.25;97258.13;5117662;28;19923;-61
2022/07/26 06:21:59;;;;;;;;;;;;;;;24.80;57.22;97264.53;5118083;28;19927;-62
2022/07/26 06:24:27;;;;;;;;;;;;;;;24.93;57.02;97264.59;5117622;28;19923;-61
2022/07/26 06:26:54;;;;;;;;;;;;;;;24.95;56.77;97254.44;5117687;28;20010;-62
2022/07/26 06:29:22;;;;;;;;;;;;;;;24.92;56.77;97271.00;5117670;28;20263;-62
2022/07/26 06:31:50;;;;;;;;;;;;;;;24.85;56.77;97267.44;5116517;28;20273;-62
2022/07/26 06:34:18;;;;;;;;;;;;;;;24.71;57.47;97275.72;5115624;28;19924;-60
2022/07/26 06:36:46;;;;;;;;;;;;;;;24.73;57.59;97281.72;5101236;28;19998;-61
2022/07/26 06:39:13;;;;;;;;;;;;;;;24.87;57.14;97286.91;5097688;28;20269;-61
2022/07/26 06:41:40;;;;;;;;;;;;;;;24.92;56.70;97292.53;5098402;28;19923;-60
2022/07/26 06:44:10;;;;;;;;;;;;;;;24.90;56.78;97308.03;5099893;28;19920;-60
2022/07/26 06:46:37;;;;;;;;;;;;;;;24.83;56.68;97314.44;5105751;28;19923;-62
2022/07/26 06:49:05;;;;;;;;;;;;;;;24.73;56.27;97316.72;5103437;28;20295;-61
2022/07/26 06:51:32;;;;;;;;;;;;;;;24.46;56.88;97325.72;5100328;28;19920;-62
2022/07/26 06:54:00;;;;;;;;;;;;;;;24.36;57.30;97311.84;5100318;28;19920;-61
2022/07/26 06:56:27;;;;;;;;;;;;;;;24.30;57.59;97318.88;5103369;28;20353;-60
2022/07/26 06:58:55;;;;;;;;;;;;;;;24.46;58.05;97321.19;5097437;28;20018;-62
2022/07/26 07:01:23;;;;;;;;;;;;;;;24.54;57.72;97317.47;5098362;28;20014;-60
2022/07/26 07:03:50;;;;;;;;;;;;;;;24.77;58.06;97323.34;5113814;28;19920;-61
2022/07/26 07:06:19;;;;;;;;;;;;;;;24.73;57.19;97322.09;5097816;28;19924;-62
2022/07/26 07:08:47;;;;;;;;;;;;;;;24.64;57.39;97315.22;5097319;28;19920;-61
2022/07/26 07:11:14;;;;;;;;;;;;;;;24.40;57.52;97323.84;5100695;28;19923;-62
2022/07/26 07:13:42;;;;;;;;;;;;;;;24.40;58.01;97329.25;5099622;28;19927;-61
2022/07/26 07:16:11;;;;;;;;;;;;;;;24.57;58.98;97333.19;5106103;28;20017;-61
2022/07/26 07:18:38;;;;;;;;;;;;;;;24.63;57.97;97338.63;5101306;28;19926;-61
2022/07/26 07:21:05;;;;;;;;;;;;;;;24.53;59.04;97332.78;5100364;28;20315;-61
2022/07/26 07:23:34;;;;;;;;;;;;;;;24.63;59.01;97349.38;5103009;28;19920;-60
2022/07/26 07:26:01;;;;;;;;;;;;;;;24.53;59.45;97346.25;5102567;28;19963;-60
2022/07/26 07:28:28;;;;;;;;;;;;;;;24.62;60.41;97360.34;5118929;28;19926;-61
2022/07/26 07:30:55;;;;;;;;;;;;;;;24.77;60.27;97367.19;5109137;28;19920;-61
2022/07/26 07:33:22;;;;;;;;;;;;;;;24.62;59.79;97371.91;5109669;28;20386;-62
2022/07/26 07:35:50;;;;;;;;;;;;;;;24.58;60.15;97381.41;5105672;28;19924;-61
2022/07/26 07:38:17;;;;;;;;;;;;;;;24.72;60.91;97383.13;5110977;28;19927;-62
2022/07/26 07:40:46;;;;;;;;;;;;;;;24.91;60.75;97382.38;5106341;28;19930;-61
2022/07/26 07:43:13;;;;;;;;;;;;;;;25.16;61.60;97383.47;5103689;28;19927;-59
2022/07/26 07:45:40;;;;;;;;;;;;;;;25.09;59.84;97376.41;5106784;28;19972;-59
2022/07/26 07:48:08;;;;;;;;;;;;;;;24.89;59.65;97356.69;5102622;28;19942;-62
2022/07/26 07:50:35;;;;;;;;;;;;;;;24.89;60.54;97370.13;5103199;28;19973;-62
2022/07/26 07:53:03;;;;;;;;;;;;;;;24.97;60.90;97369.97;5109198;28;19927;-63
2022/07/26 07:55:30;;;;;;;;;;;;;;;24.87;60.08;97391.84;5100849;28;20327;-64
2022/07/26 07:57:58;;;;;;;;;;;;;;;24.96;60.04;97401.41;5098460;28;20226;-62
2022/07/26 08:00:25;;;;;;;;;;;;;;;24.91;60.25;97403.03;5098293;28;20538;-62
2022/07/26 08:02:53;;;;;;;;;;;;;;;24.78;61.37;97433.44;5098558;28;19920;-63
2022/07/26 08:05:20;;;;;;;;;;;;;;;24.62;61.53;97447.22;5099329;28;19920;-63
2022/07/26 08:07:50;;;;;;;;;;;;;;;24.54;62.14;97455.47;5099087;28;19926;-63
2022/07/26 08:10:17;;;;;;;;;;;;;;;24.72;62.46;97466.53;5099625;28;19920;-62
2022/07/26 08:12:44;;;;;;;;;;;;;;;24.85;61.80;97460.38;5099977;28;20234;-63
2022/07/26 08:15:13;;;;;;;;;;;;;;;25.05;61.80;97463.97;5099766;28;19924;-64
2022/07/26 08:17:40;;;;;;;;;;;;;;;25.31;60.87;97470.28;5098054;28;19920;-63
2022/07/26 08:20:08;;;;;;;;;;;;;;;25.10;61.51;97459.66;5097701;28;19927;-63
2022/07/26 08:22:35;;;;;;;;;;;;;;;25.05;61.97;97475.59;5097828;28;19959;-63
2022/07/26 08:25:03;;;;;;;;;;;;;;;25.03;61.60;97484.91;5097854;28;19920;-63
2022/07/26 08:27:30;;;;;;;;;;;;;;;24.85;61.54;97485.41;5097783;28;19954;-64
2022/07/26 08:29:57;;;;;;;;;;;;;;;24.76;62.86;97475.84;5098804;28;20295;-63
2022/07/26 08:32:25;;;;;;;;;;;;;;;24.73;64.02;97486.22;5099259;28;19920;-62
2022/07/26 08:34:53;;;;;;;;;;;;;;;24.84;63.96;97488.31;5099342;28;20226;-63
2022/07/26 08:37:20;;;;;;;;;;;;;;;24.74;63.41;97480.63;5099141;28;20249;-63
2022/07/26 08:39:47;;;;;;;;;;;;;;;24.74;64.07;97477.94;5099181;28;19926;-62
2022/07/26 08:42:15;;;;;;;;;;;;;;;24.83;64.26;97482.09;5099340;28;19927;-63
2022/07/26 08:44:44;;;;;;;;;;;;;;;25.22;64.21;97476.91;5099194;28;20224;-63
2022/07/26 08:47:12;;;;;;;;;;;;;;;25.22;63.17;97481.44;5099289;28;19927;-62
2022/07/26 08:49:41;;;;;;;;;;;;;;;25.06;64.06;97488.00;5099296;28;20316;-63
2022/07/26 08:52:09;;;;;;;;;;;;;;;24.94;65.28;97497.72;5099060;28;19920;-63
2022/07/26 08:54:36;;;;;;;;;;;;;;;24.75;65.58;97498.44;5098941;28;19920;-63
2022/07/26 08:57:03;;;;;;;;;;;;;;;24.62;65.32;97502.91;5099346;28;19920;-63
2022/07/26 08:59:30;;;;;;;;;;;;;;;24.43;66.36;97509.81;5099030;28;19927;-63
2022/07/26 09:01:58;;;;;;;;;;;;;;;23.91;68.09;97513.94;5099035;28;20311;-62
2022/07/26 09:04:27;;;;;;;;;;;;;;;23.47;70.00;97524.88;5098862;28;19919;-63
2022/07/26 09:06:59;;;;;;;;;;;;;;;23.51;70.25;97532.38;5098647;28;20010;-63
2022/07/26 09:09:26;;;;;;;;;;;;;;;23.08;71.39;97543.22;5098862;28;19934;-63
2022/07/26 09:11:54;;;;;;;;;;;;;;;22.94;72.83;97552.94;5098572;28;19920;-62
2022/07/26 09:14:21;;;;;;;;;;;;;;;22.63;72.92;97551.47;5098642;28;19920;-63
2022/07/26 09:16:58;;;;;;;;;;;;;;;22.35;74.43;97564.69;5099013;28;20010;-62
2022/07/26 09:19:26;;;;;;;;;;;;;;;22.53;75.20;97567.03;5098931;28;19924;-61
2022/07/26 09:21:54;;;;;;;;;;;;;;;22.44;75.24;97568.13;5098465;28;19920;-62
2022/07/26 09:24:31;;;;;;;;;;;;;;;22.39;75.30;97571.34;5098551;28;19920;-61
2022/07/26 09:26:59;;;;;;;;;;;;;;;22.26;76.29;97565.75;5098349;28;19923;-63
2022/07/26 09:29:27;;;;;;;;;;;;;;;22.16;77.59;97575.91;5098527;28;20235;-62
2022/07/26 09:32:08;;;;;;;;;;;;;;;21.91;78.66;97582.47;5098190;28;19954;-63
2022/07/26 09:34:35;;;;;;;;;;;;;;;21.78;80.28;97586.78;5098483;28;19924;-62
2022/07/26 09:37:03;;;;;;;;;;;;;;;21.76;80.96;97588.81;5098249;28;20322;-62
2022/07/26 09:39:31;;;;;;;;;;;;;;;21.66;81.32;97599.75;5098182;28;20324;-62
2022/07/26 09:42:06;;;;;;;;;;;;;;;21.54;82.33;97594.97;5098177;28;19927;-61
2022/07/26 09:44:33;;;;;;;;;;;;;;;21.36;83.67;97603.25;5098040;28;19920;-62
2022/07/26 09:47:00;;;;;;;;;;;;;;;21.24;85.41;97603.81;5097969;28;19920;-61
2022/07/26 09:49:29;;;;;;;;;;;;;;;21.05;85.89;97604.22;5098020;28;20036;-62
2022/07/26 09:51:56;;;;;;;;;;;;;;;20.91;87.52;97610.31;5098173;28;19931;-61
2022/07/26 09:54:32;;;;;;;;;;;;;;;20.87;88.31;97611.63;5097262;28;19928;-60
2022/07/26 09:57:00;;;;;;;;;;;;;;;20.71;89.15;97605.31;5100947;28;19935;-61
2022/07/26 09:59:27;;;;;;;;;;;;;;;20.57;90.69;97614.06;5098411;28;20001;-60
2022/07/26 10:01:56;;;;;;;;;;;;;;;20.47;92.18;97618.75;5099742;28;19973;-59
2022/07/26 10:04:23;;;;;;;;;;;;;;;20.42;92.56;97613.06;5102789;28;20315;-61
2022/07/26 10:06:50;;;;;;;;;;;;;;;20.34;93.72;97617.63;5109903;28;19919;-60
2022/07/26 10:09:18;;;;;;;;;;;;;;;20.32;93.57;97623.13;5102131;28;19920;-61
2022/07/26 10:11:49;;;;;;;;;;;;;;;20.21;94.93;97626.16;5101200;28;19924;-59
2022/07/26 10:14:38;;;;;;;;;;;;;;;20.10;95.58;97634.47;5106136;28;20222;-60
2022/07/26 10:17:25;;;;;;;;;;;;;;;19.99;97.04;97629.47;5098268;28;19985;-61
2022/07/26 10:19:54;;;;;;;;;;;;;;;20.09;97.08;97634.63;5102777;28;20308;-61
2022/07/26 10:22:25;;;;;;;;;;;;;;;20.10;96.87;97633.63;5113347;28;20303;-61
2022/07/26 10:24:52;;;;;;;;;;;;;;;20.21;96.90;97634.16;5117747;28;19942;-61
2022/07/26 10:27:44;;;;;;;;;;;;;;;20.25;96.32;97642.66;5105495;28;19926;-60
2022/07/26 10:30:25;;;;;;;;;;;;;;;20.23;96.75;97644.69;5076538;28;19920;-61
2022/07/26 10:32:58;;;;;;;;;;;;;;;20.19;97.15;97646.03;5095938;28;20226;-60
2022/07/26 10:35:32;;;;;;;;;;;;;;;20.20;97.03;97653.03;5094656;28;19920;-61
2022/07/26 10:38:00;;;;;;;;;;;;;;;20.19;97.60;97651.38;5095741;28;19989;-61
2022/07/26 10:40:29;;;;;;;;;;;;;;;20.37;97.59;97652.84;5097087;28;20238;-60
2022/07/26 10:43:07;;;;;;;;;;;;;;;20.46;96.64;97638.47;5102246;28;20212;-61
2022/07/26 10:45:36;;;;;;;;;;;;;;;20.73;94.75;97634.56;5102082;28;20262;-60
2022/07/26 10:48:10;;;;;;;;;;;;;;;20.96;93.85;97632.03;5097219;28;20277;-61
2022/07/26 10:50:38;;;;;;;;;;;;;;;21.08;92.94;97634.16;5097089;28;19930;-60
2022/07/26 10:53:05;;;;;;;;;;;;;;;21.07;93.87;97647.72;5099712;28;19966;-61
2022/07/26 10:55:46;;;;;;;;;;;;;;;21.07;93.35;97645.03;5097101;28;19934;-61
2022/07/26 10:58:14;;;;;;;;;;;;;;;20.81;94.35;97655.94;5097054;28;19926;-61
2022/07/26 11:00:53;;;;;;;;;;;;;;;20.61;97.18;97660.00;5097934;28;19919;-61
2022/07/26 11:03:20;;;;;;;;;;;;;;;20.39;98.48;97671.38;5101138;28;19920;-59
2022/07/26 11:05:48;;;;;;;;;;;;;;;20.03;100.00;97678.88;5100986;28;19977;-61
2022/07/26 11:08:15;;;;;;;;;;;;;;;19.76;100.00;97678.31;5101230;28;19920;-61
2022/07/26 11:10:42;;;;;;;;;;;;;;;19.60;100.00;97676.44;5100872;28;19927;-61
2022/07/26 11:13:11;;;;;;;;;;;;;;;19.50;100.00;97678.44;5100565;28;19942;-61
2022/07/26 11:15:39;;;;;;;;;;;;;;;19.27;100.00;97685.31;5120868;28;19920;-62
2022/07/26 11:18:11;;;;;;;;;;;;;;;19.12;100.00;97688.75;5111157;28;19920;-60
2022/07/26 11:20:39;;;;;;;;;;;;;;;18.88;100.00;97692.13;5113543;28;20212;-62
2022/07/26 11:23:19;;;;;;;;;;;;;;;18.69;100.00;97694.16;5104788;28;20027;-61
2022/07/26 11:25:58;;;;;;;;;;;;;;;18.48;100.00;97681.19;5116616;28;19926;-62
2022/07/26 11:28:25;;;;;;;;;;;;;;;18.49;100.00;97698.81;5120986;28;19924;-62
2022/07/26 11:30:56;;;;;;;;;;;;;;;18.39;100.00;97702.59;5120909;28;19923;-61
2022/07/26 11:33:37;;;;;;;;;;;;;;;18.31;100.00;97697.19;5106089;28;19920;-62
2022/07/26 11:36:04;;;;;;;;;;;;;;;18.30;100.00;97696.34;5102854;28;19924;-62
2022/07/26 11:38:44;;;;;;;;;;;;;;;18.26;100.00;97699.47;5103716;28;19973;-60
2022/07/26 11:41:13;;;;;;;;;;;;;;;18.27;100.00;97709.97;5106187;28;19974;-61
2022/07/26 11:43:41;;;;;;;;;;;;;;;18.20;100.00;97706.25;5104917;28;19928;-62
2022/07/26 11:46:08;;;;;;;;;;;;;;;18.15;100.00;97708.53;5115606;28;20284;-62
2022/07/26 11:48:38;;;;;;;;;;;;;;;18.17;100.00;97719.03;5117392;28;19927;-61
2022/07/26 11:51:09;;;;;;;;;;;;;;;18.15;100.00;97718.34;5101715;28;20216;-61
2022/07/26 11:53:36;;;;;;;;;;;;;;;18.20;100.00;97722.22;5100688;28;19920;-60
2022/07/26 11:56:10;;;;;;;;;;;;;;;18.17;100.00;97716.38;5102567;28;19924;-61
2022/07/26 11:58:39;;;;;;;;;;;;;;;18.21;100.00;97718.59;5100725;28;19924;-62
2022/07/26 12:01:06;;;;;;;;;;;;;;;18.24;100.00;97726.25;5099685;28;19920;-60
2022/07/26 12:03:34;;;;;;;;;;;;;;;18.26;100.00;97721.63;5106800;28;19926;-61
2022/07/26 12:06:04;;;;;;;;;;;;;;;18.24;100.00;97728.91;5105564;28;20007;-61
2022/07/26 12:08:42;;;;;;;;;;;;;;;18.24;100.00;97726.25;5096769;28;19920;-61
2022/07/26 12:11:09;;;;;;;;;;;;;;;18.27;100.00;97727.75;5099542;28;19920;-61
2022/07/26 12:13:49;;;;;;;;;;;;;;;18.27;100.00;97725.09;5098353;28;19957;-62
2022/07/26 12:16:31;;;;;;;;;;;;;;;18.25;100.00;97741.25;5102225;28;19919;-62
2022/07/26 12:18:58;;;;;;;;;;;;;;;18.24;100.00;97728.09;5095433;28;19977;-61
2022/07/26 12:21:39;;;;;;;;;;;;;;;18.27;100.00;97738.41;5098632;28;19924;-60
2022/07/26 12:24:06;;;;;;;;;;;;;;;18.32;100.00;97736.97;5099213;28;20301;-61
2022/07/26 12:26:33;;;;;;;;;;;;;;;18.38;100.00;97735.50;5098874;28;19920;-61
2022/07/26 12:29:23;;;;;;;;;;;;;;;18.45;100.00;97742.75;5098797;28;19924;-61
2022/07/26 12:32:00;;;;;;;;;;;;;;;18.60;100.00;97746.53;5097345;28;20357;-61
2022/07/26 12:34:27;;;;;;;;;;;;;;;18.75;100.00;97746.84;5096780;28;20030;-61
2022/07/26 12:37:05;;;;;;;;;;;;;;;18.81;100.00;97741.72;5097087;28;19919;-62
2022/07/26 12:39:32;;;;;;;;;;;;;;;18.77;100.00;97750.19;5096949;28;19951;-62
2022/07/26 12:41:59;;;;;;;;;;;;;;;18.79;100.00;97754.38;5096909;28;19920;-62
2022/07/26 12:44:27;;;;;;;;;;;;;;;18.82;100.00;97746.06;5096736;28;20010;-63
2022/07/26 12:46:54;;;;;;;;;;;;;;;18.90;100.00;97746.09;5096910;28;19920;-62
2022/07/26 12:49:21;;;;;;;;;;;;;;;19.10;100.00;97736.91;5098100;28;19931;-62
2022/07/26 12:51:48;;;;;;;;;;;;;;;19.18;100.00;97739.63;5098041;28;19924;-62
2022/07/26 12:54:17;;;;;;;;;;;;;;;19.08;100.00;97738.88;5097850;28;20220;-63
2022/07/26 12:56:44;;;;;;;;;;;;;;;19.16;100.00;97738.94;5098369;28;19952;-62